Airfield :
LOGIN :

Register | Disclaimer

   EN    FR    IT 

 










Legend :    VFR   Marginal VFR   IFR   Intensive IFR   Very Intensive IFR
Visi :
Ceiling :
>= 8 km
>= 3000ft
5 to 8 km
1000 to 3000 ft
1500m to 5 km
500 to 1000 ft
800 to 1500m
200 to 500 ft
< 800m
< 200 ft
Symbols :   Thunderstorms  Fog  Heavy snow  Heavy precipitations  Wind > 20 kt
SIGMETs :     Misc.  Thunderstorms  Icing  Turbulence  Mountain Waves  Volcanic Ashes






- Airport Elevation : 296 ft
- IATA code : GKE


ETNG - Geilenkirchen

CURRENT METAR :
  • 271750Z 30006KT 1500 R09/1700 SN BKN002 OVC003 00/M00 Q1000 TEMPO 0700

EXPIRED METARs :
  • 271650Z 32005KT 1500 R09/1700 SN SCT002 OVC003 00/M00 Q0998 TEMPO 0700 BKN002
  • 271617Z 34006KT 1500 R09/1700 SN SCT002 BKN003 01/00 Q0996 TEMPO 0700 BKN002
  • 271612Z 35006KT 2500 SNRA BKN003 OVC005 01/00 Q0996 NOSIG
  • 271550Z 02004KT 5000 -RASN OVC005 02/01 Q0995 BECMG 2500 SNRA BKN004

TAF TAF ETNG
Valid from the 27 at 18:00 until the 28 at 09:00 UTC


271700Z 2718/2809 27008KT 1500 SNRA OVC003
PROB40 2118/2720 0700 SN VV002
BECMG 2720/2722 9999 NSW SCT020



MET'MAP, your aeronautical weather chart ! - Copyright ORBIFLY December 2007 - Disclaimer

ORBIFLY MET'MAP TEAM :

Programming & Development : Alexandra Zaïnal
Concept & original design : Baudouin d'Aumeries
Assistance for programming : Marc-Olivier Méhu
Technical & hardware support : Manuel Goepfert

Contact : metmap@orbifly.com




SOURCES & CREDITS :

   NOAA